Time;durP1;ratioP1;P1;durP2;ratioP2;P2;SDS_P1;SDS_P2;PMS_P1;PMS_P2;Temp;Humidity;BMP_temperature;BMP_pressure;BME280_temperature;BME280_humidity;BME280_pressure;Samples;Min_cycle;Max_cycle;Signal;HPM_P1;HPM_P2
2021/12/12 00:00:31;;;;;;;29.20;15.48;;;;;;;-11.28;83.87;101292.16;4961583;28;20039;-57
2021/12/12 00:03:36;;;;;;;25.45;13.65;;;;;;;-11.30;84.33;101300.25;4955987;29;20058;-58
2021/12/12 00:06:33;;;;;;;14.65;8.95;;;;;;;-11.65;84.62;101281.25;4946892;28;20391;-57
2021/12/12 00:09:27;;;;;;;31.00;14.35;;;;;;;-11.94;84.13;101207.75;4950183;29;20034;-57
2021/12/12 00:12:24;;;;;;;28.92;15.82;;;;;;;-11.23;84.83;101280.06;4962372;28;20031;-57
2021/12/12 00:15:12;;;;;;;32.25;16.05;;;;;;;-11.11;83.76;101310.34;4962040;29;20321;-57
2021/12/12 00:17:58;;;;;;;32.47;16.67;;;;;;;-11.24;84.83;101280.81;4956154;29;20036;-56
2021/12/12 00:20:47;;;;;;;32.03;16.00;;;;;;;-11.18;83.73;101293.00;4961962;28;20106;-57
2021/12/12 00:23:33;;;;;;;30.38;17.00;;;;;;;-11.02;83.03;101286.16;4962668;29;20023;-57
2021/12/12 00:26:20;;;;;;;36.78;17.45;;;;;;;-11.07;83.88;101282.38;4953044;29;20336;-57
2021/12/12 00:29:09;;;;;;;31.25;16.83;;;;;;;-10.84;83.46;101291.06;4953691;29;20035;-57
2021/12/12 00:31:59;;;;;;;32.15;17.80;;;;;;;-11.18;84.61;101283.00;4952460;29;20150;-57
2021/12/12 00:34:50;;;;;;;31.80;15.20;;;;;;;-11.12;84.11;101318.56;4959690;29;20030;-56
2021/12/12 00:37:37;;;;;;;27.83;17.50;;;;;;;-10.81;83.96;101308.84;4962179;29;20379;-57
2021/12/12 00:40:38;;;;;;;33.53;18.00;;;;;;;-11.01;84.53;101345.44;4961008;29;20135;-56
2021/12/12 00:43:40;;;;;;;35.28;18.80;;;;;;;-10.69;83.46;101312.44;4962178;29;20035;-56
2021/12/12 00:46:26;;;;;;;40.25;20.25;;;;;;;-10.59;83.70;101315.06;4962778;28;20144;-57
2021/12/12 00:49:14;;;;;;;36.15;19.30;;;;;;;-10.68;83.40;101310.84;4962240;29;20050;-57
2021/12/12 00:52:00;;;;;;;37.15;19.05;;;;;;;-10.45;83.44;101317.88;4957391;28;20035;-58
2021/12/12 00:54:48;;;;;;;40.13;20.35;;;;;;;-11.07;82.56;101241.44;4960579;29;20051;-57
2021/12/12 00:57:34;;;;;;;37.53;21.00;;;;;;;-10.53;83.09;101311.31;4961280;29;20102;-58
2021/12/12 01:00:30;;;;;;;37.22;20.70;;;;;;;-10.46;83.04;101311.13;4944685;29;20036;-58
2021/12/12 01:03:23;;;;;;;38.80;20.75;;;;;;;-10.67;81.61;101250.00;4945433;29;20495;-57
2021/12/12 01:06:12;;;;;;;39.83;21.27;;;;;;;-10.49;83.36;101323.38;4961331;29;20355;-57
2021/12/12 01:09:02;;;;;;;40.25;21.88;;;;;;;-10.80;81.99;101250.53;4959475;29;20130;-58
2021/12/12 01:11:52;;;;;;;40.70;23.63;;;;;;;-11.02;84.21;101256.13;4961168;28;20031;-58
2021/12/12 01:14:49;;;;;;;39.63;22.17;;;;;;;-11.08;84.84;101260.59;4956802;29;20023;-57
2021/12/12 01:17:42;;;;;;;46.42;23.98;;;;;;;-10.42;83.06;101324.06;4954079;28;20187;-58
2021/12/12 01:20:50;;;;;;;36.58;20.13;;;;;;;-11.18;83.49;101248.00;4961579;29;20039;-58
2021/12/12 01:23:42;;;;;;;45.42;23.65;;;;;;;-10.65;85.34;101339.50;4960757;28;20393;-57
2021/12/12 01:26:29;;;;;;;43.35;22.60;;;;;;;-10.45;84.76;101355.44;4959711;29;20134;-58
2021/12/12 01:29:15;;;;;;;36.88;20.50;;;;;;;-10.73;83.84;101327.91;4954604;29;20082;-57
2021/12/12 01:32:04;;;;;;;36.72;22.08;;;;;;;-10.59;85.51;101327.56;4944353;29;20028;-56
2021/12/12 01:34:52;;;;;;;38.80;20.00;;;;;;;-10.73;84.39;101324.53;4953035;29;20047;-56
2021/12/12 01:37:40;;;;;;;28.83;14.13;;;;;;;-10.80;84.46;101318.09;4958254;29;20435;-57
2021/12/12 01:40:26;;;;;;;35.17;20.08;;;;;;;-10.67;85.93;101318.47;4959228;29;20031;-56
2021/12/12 01:43:20;;;;;;;34.55;18.85;;;;;;;-10.61;86.18;101306.50;4944878;29;20074;-56
2021/12/12 01:46:14;;;;;;;32.35;17.00;;;;;;;-10.67;86.71;101305.97;4960280;29;20256;-57
2021/12/12 01:49:11;;;;;;;30.60;16.00;;;;;;;-10.88;85.98;101279.91;4945652;29;20228;-57
2021/12/12 01:51:58;;;;;;;29.45;15.27;;;;;;;-10.63;86.18;101293.00;4952866;29;20233;-56
2021/12/12 01:54:48;;;;;;;32.75;16.27;;;;;;;-10.89;84.28;101223.09;4944325;29;20027;-57
2021/12/12 01:57:36;;;;;;;33.15;15.77;;;;;;;-10.72;84.94;101267.13;4946635;29;20023;-58
2021/12/12 02:00:32;;;;;;;36.30;17.73;;;;;;;-10.49;86.69;101263.28;4958938;29;20197;-58
2021/12/12 02:03:22;;;;;;;33.22;18.25;;;;;;;-10.79;84.09;101212.28;4959764;29;20067;-58
2021/12/12 02:06:11;;;;;;;37.80;19.35;;;;;;;-10.65;84.81;101276.06;4958649;29;20035;-57
2021/12/12 02:08:58;;;;;;;39.70;21.70;;;;;;;-10.53;85.60;101289.69;4960708;29;20015;-57
2021/12/12 02:11:46;;;;;;;44.58;23.55;;;;;;;-10.35;85.62;101295.41;4952613;29;20321;-57
2021/12/12 02:14:37;;;;;;;36.47;21.88;;;;;;;-10.52;84.63;101278.91;4954104;29;20034;-57
2021/12/12 02:17:32;;;;;;;44.08;23.52;;;;;;;-10.44;85.12;101293.00;4950573;29;20043;-57
2021/12/12 02:20:39;;;;;;;41.58;22.10;;;;;;;-10.59;84.64;101275.00;4954857;29;20039;-57
2021/12/12 02:36:12;;;;;;;37.70;20.25;;;;;;;-10.53;85.68;101306.31;4943709;29;20091;-56
2021/12/12 02:38:59;;;;;;;47.78;22.65;;;;;;;-10.55;85.18;101276.13;4945681;29;20087;-57
2021/12/12 02:41:59;;;;;;;46.53;23.77;;;;;;;-10.94;86.82;101220.19;4949137;28;20261;-57
2021/12/12 02:44:46;;;;;;;41.00;21.02;;;;;;;-10.52;86.08;101283.03;4953707;29;20028;-57
2021/12/12 02:47:34;;;;;;;37.85;18.60;;;;;;;-10.61;85.82;101285.63;4959015;29;20065;-57
2021/12/12 02:50:27;;;;;;;40.88;20.17;;;;;;;-10.50;85.72;101294.06;4958125;29;20035;-57
2021/12/12 02:53:23;;;;;;;42.63;20.70;;;;;;;-10.55;84.64;101296.16;4957181;29;20031;-57
2021/12/12 02:56:16;;;;;;;36.95;20.80;;;;;;;-10.77;83.33;101213.31;4942315;29;20035;-57
2021/12/12 02:59:07;;;;;;;40.05;19.88;;;;;;;-10.68;84.22;101299.19;4944108;29;20035;-57
2021/12/12 03:02:06;;;;;;;40.30;19.40;;;;;;;-10.60;84.49;101285.75;4943960;29;20398;-58
2021/12/12 03:04:55;;;;;;;40.80;19.80;;;;;;;-11.12;84.41;101179.41;4957611;29;20023;-58
2021/12/12 03:07:43;;;;;;;36.55;17.75;;;;;;;-10.90;84.59;101196.34;4959378;29;20027;-57
2021/12/12 03:10:33;;;;;;;28.75;15.50;;;;;;;-10.94;83.90;101224.31;4959035;29;20287;-58
2021/12/12 03:13:20;;;;;;;35.90;19.65;;;;;;;-10.28;83.28;101265.13;4953923;29;20034;-57
2021/12/12 03:16:07;;;;;;;38.30;20.95;;;;;;;-10.14;83.69;101280.50;4946018;29;20122;-57
2021/12/12 03:18:53;;;;;;;37.90;19.77;;;;;;;-10.20;82.76;101275.84;4959760;29;20031;-57
2021/12/12 03:21:42;;;;;;;36.65;19.33;;;;;;;-10.07;84.23;101287.81;4959950;29;20031;-57
2021/12/12 03:24:28;;;;;;;34.88;17.70;;;;;;;-10.31;82.55;101259.88;4959612;29;20068;-57
2021/12/12 03:27:15;;;;;;;35.10;19.65;;;;;;;-10.34;83.85;101262.13;4954341;29;20272;-57
2021/12/12 03:30:04;;;;;;;39.17;20.27;;;;;;;-10.21;84.08;101255.66;4967971;28;20091;-57
2021/12/12 03:32:50;;;;;;;38.63;19.70;;;;;;;-10.20;82.84;101262.41;4950380;29;20301;-56
2021/12/12 03:35:37;;;;;;;36.78;20.10;;;;;;;-10.09;84.52;101265.13;4951801;28;20024;-57
2021/12/12 03:38:27;;;;;;;38.42;20.63;;;;;;;-10.41;83.03;101255.69;4957329;29;20031;-55
2021/12/12 03:41:18;;;;;;;29.73;16.20;;;;;;;-10.63;83.56;101242.94;4961538;29;20217;-56
2021/12/12 03:44:12;;;;;;;42.45;20.00;;;;;;;-10.36;85.61;101248.63;4960054;29;20448;-56
2021/12/12 03:47:07;;;;;;;40.17;20.52;;;;;;;-10.36;84.42;101260.25;4962470;29;20264;-57
2021/12/12 03:49:54;;;;;;;37.58;18.48;;;;;;;-10.40;85.28;101244.09;4962615;29;20227;-57
2021/12/12 03:52:40;;;;;;;39.75;19.77;;;;;;;-10.38;84.90;101245.09;4949399;29;20026;-57
2021/12/12 03:55:28;;;;;;;38.47;19.83;;;;;;;-10.71;86.93;101278.91;4962377;29;20031;-58
2021/12/12 03:58:14;;;;;;;36.78;19.15;;;;;;;-10.65;86.17;101254.41;4963614;29;20351;-58
2021/12/12 04:01:18;;;;;;;35.75;20.58;;;;;;;-10.75;86.18;101259.34;4956635;29;20090;-57
2021/12/12 04:04:18;;;;;;;39.45;20.42;;;;;;;-10.68;87.13;101265.78;4954646;29;20063;-57
2021/12/12 04:07:15;;;;;;;45.75;20.20;;;;;;;-10.47;86.11;101257.69;4946601;29;20047;-56
2021/12/12 04:10:01;;;;;;;40.58;21.38;;;;;;;-10.64;86.57;101253.69;4960989;29;20046;-56
2021/12/12 04:12:48;;;;;;;33.72;17.35;;;;;;;-11.06;86.79;101196.56;4960848;29;20027;-57
2021/12/12 04:15:35;;;;;;;41.80;20.58;;;;;;;-10.42;86.45;101248.97;4960207;29;20031;-57
2021/12/12 04:18:23;;;;;;;44.38;20.98;;;;;;;-10.40;85.62;101286.66;4962365;29;20027;-56
2021/12/12 04:21:10;;;;;;;42.55;21.35;;;;;;;-10.38;84.76;101264.25;4961710;29;20075;-57
2021/12/12 04:23:57;;;;;;;44.65;21.27;;;;;;;-10.24;84.65;101259.66;4962695;29;20058;-57
2021/12/12 04:26:43;;;;;;;36.00;19.75;;;;;;;-9.98;85.87;101257.66;4961951;29;20015;-57
2021/12/12 04:29:34;;;;;;;35.45;17.65;;;;;;;-10.11;84.94;101244.06;4961930;29;20042;-58
2021/12/12 04:32:24;;;;;;;34.30;17.40;;;;;;;-10.44;82.99;101184.47;4962636;28;20039;-58
2021/12/12 04:35:17;;;;;;;31.20;16.48;;;;;;;-10.12;84.05;101284.00;4960636;29;20111;-57
2021/12/12 04:38:04;;;;;;;34.13;16.35;;;;;;;-10.23;85.29;101275.56;4949901;29;20070;-56
2021/12/12 04:40:50;;;;;;;38.90;17.63;;;;;;;-10.16;84.35;101274.47;4956318;29;20023;-57
2021/12/12 04:43:40;;;;;;;30.80;16.45;;;;;;;-10.24;85.16;101276.31;4949260;29;20036;-57
2021/12/12 04:49:54;;;;;;;35.00;16.08;;;;;;;-10.63;83.51;101205.41;4946086;29;20043;-56
2021/12/12 04:49:56;;;;;;;33.70;15.30;;;;;;;-10.25;84.47;101279.56;4962567;29;20350;-57
2021/12/12 04:52:49;;;;;;;34.85;15.93;;;;;;;-10.13;84.33;101284.75;4960277;29;20032;-56
2021/12/12 04:55:47;;;;;;;38.25;15.07;;;;;;;-10.64;85.26;101201.13;4960789;29;20035;-57
2021/12/12 04:59:12;;;;;;;35.40;16.10;;;;;;;-10.01;85.16;101282.44;4959848;29;20019;-57
2021/12/12 05:01:57;;;;;;;30.73;15.02;;;;;;;-9.89;82.42;101288.50;4939913;29;20047;-57
2021/12/12 05:04:54;;;;;;;34.75;17.02;;;;;;;-10.29;82.99;101235.84;4959490;29;20387;-57
2021/12/12 05:08:13;;;;;;;36.08;17.08;;;;;;;-9.80;83.00;101288.44;4962261;29;20066;-56
2021/12/12 05:11:03;;;;;;;34.92;15.25;;;;;;;-9.98;83.44;101316.16;4960892;29;20034;-56
2021/12/12 05:13:59;;;;;;;40.43;15.27;;;;;;;-10.34;84.97;101252.13;4961942;29;20029;-55
2021/12/12 05:16:46;;;;;;;31.27;15.10;;;;;;;-9.74;82.40;101298.97;4961275;29;20418;-57
2021/12/12 05:19:34;;;;;;;34.33;15.00;;;;;;;-10.43;84.54;101237.19;4945476;28;20039;-57
2021/12/12 05:22:29;;;;;;;38.92;16.60;;;;;;;-10.46;84.63;101236.91;4945174;28;20035;-56
2021/12/12 05:25:23;;;;;;;33.80;14.95;;;;;;;-9.91;84.10;101310.06;4946922;29;20030;-57
2021/12/12 05:28:11;;;;;;;38.85;15.73;;;;;;;-10.17;85.72;101337.84;4947082;28;20031;-57
2021/12/12 05:31:00;;;;;;;33.80;16.02;;;;;;;-10.16;85.22;101310.44;4956533;29;20346;-57
2021/12/12 05:33:50;;;;;;;39.38;16.17;;;;;;;-10.25;85.36;101328.00;4947817;29;20031;-58
2021/12/12 05:36:37;;;;;;;37.00;15.82;;;;;;;-10.17;86.51;101305.28;4948742;29;20027;-57
2021/12/12 05:39:24;;;;;;;41.47;16.98;;;;;;;-9.95;83.74;101298.00;4961435;29;20317;-57
2021/12/12 05:42:12;;;;;;;37.45;17.38;;;;;;;-10.11;83.56;101235.69;4959701;29;20059;-57
2021/12/12 05:45:00;;;;;;;40.10;16.33;;;;;;;-9.63;82.86;101312.41;4961376;28;20034;-56
2021/12/12 05:47:47;;;;;;;36.00;16.40;;;;;;;-9.69;84.54;101316.91;4960629;29;20027;-57
2021/12/12 05:50:34;;;;;;;39.25;16.85;;;;;;;-9.69;83.22;101305.25;4951929;29;20337;-57
2021/12/12 05:53:21;;;;;;;39.08;17.05;;;;;;;-9.88;84.18;101310.31;4960163;28;20031;-57
2021/12/12 05:56:07;;;;;;;39.08;16.60;;;;;;;-9.87;82.08;101309.56;4959746;29;20043;-57
2021/12/12 05:58:54;;;;;;;39.92;17.50;;;;;;;-9.77;83.51;101313.75;4948653;29;20098;-57
2021/12/12 06:01:42;;;;;;;36.70;15.90;;;;;;;-10.06;82.84;101305.47;4959180;29;20030;-56
2021/12/12 06:04:28;;;;;;;40.17;15.93;;;;;;;-10.09;84.87;101300.19;4951852;28;20035;-57
2021/12/12 06:07:18;;;;;;;39.30;15.57;;;;;;;-10.25;83.77;101322.13;4955401;29;20097;-58
2021/12/12 06:10:09;;;;;;;38.35;17.45;;;;;;;-10.05;86.20;101296.31;4959379;29;20039;-58
2021/12/12 06:12:56;;;;;;;46.50;18.15;;;;;;;-9.78;83.26;101315.38;4958634;29;20027;-58
2021/12/12 06:15:50;;;;;;;46.28;17.52;;;;;;;-10.05;83.69;101306.34;4941915;29;20387;-57
2021/12/12 06:18:36;;;;;;;40.22;17.88;;;;;;;-10.04;85.14;101312.25;4960745;29;20224;-58
2021/12/12 06:21:23;;;;;;;45.80;17.27;;;;;;;-10.33;85.77;101303.03;4959234;29;20035;-57
2021/12/12 06:24:09;;;;;;;40.33;17.42;;;;;;;-9.87;85.67;101322.09;4960882;28;20066;-57
2021/12/12 06:27:00;;;;;;;49.15;18.77;;;;;;;-10.33;85.35;101318.06;4958601;29;20111;-57
2021/12/12 06:29:50;;;;;;;51.05;19.48;;;;;;;-10.11;85.09;101300.81;4958999;28;20031;-58
2021/12/12 06:32:36;;;;;;;51.38;19.75;;;;;;;-10.08;85.82;101303.56;4960113;29;20098;-58
2021/12/12 06:35:22;;;;;;;44.95;18.08;;;;;;;-10.22;86.67;101314.88;4954957;29;20099;-57
2021/12/12 06:38:12;;;;;;;50.30;20.77;;;;;;;-10.09;85.17;101305.22;4944706;29;20329;-58
2021/12/12 06:40:59;;;;;;;46.70;20.27;;;;;;;-9.86;85.78;101316.34;4951997;29;20329;-58
2021/12/12 06:43:47;;;;;;;56.28;22.08;;;;;;;-9.85;86.31;101312.22;4944494;29;20028;-57
2021/12/12 06:46:34;;;;;;;46.30;21.05;;;;;;;-9.85;86.26;101304.69;4957075;29;20228;-57
2021/12/12 06:49:22;;;;;;;48.35;19.08;;;;;;;-9.95;85.12;101300.50;4957931;29;20046;-58
2021/12/12 06:52:10;;;;;;;60.55;22.05;;;;;;;-9.79;84.85;101322.75;4957789;29;20066;-59
2021/12/12 06:54:57;;;;;;;62.45;22.63;;;;;;;-9.78;84.38;101301.97;4957152;29;20220;-57
2021/12/12 06:57:43;;;;;;;57.58;21.13;;;;;;;-9.71;85.94;101296.72;4958709;29;20027;-57
2021/12/12 07:00:29;;;;;;;49.88;21.08;;;;;;;-9.46;84.91;101302.22;4958871;29;20023;-57
2021/12/12 07:03:18;;;;;;;57.25;21.77;;;;;;;-9.68;85.36;101314.53;4951282;29;20056;-58
2021/12/12 07:06:05;;;;;;;53.95;21.63;;;;;;;-9.57;83.67;101305.44;4950511;29;20387;-58
2021/12/12 07:08:51;;;;;;;55.92;22.35;;;;;;;-9.49;85.96;101312.00;4960312;28;20312;-57
2021/12/12 07:11:40;;;;;;;54.42;20.92;;;;;;;-9.45;85.71;101321.50;4959844;29;20509;-59
2021/12/12 07:14:26;;;;;;;59.33;22.55;;;;;;;-9.47;85.62;101304.59;4954518;29;20038;-58
2021/12/12 07:17:14;;;;;;;52.78;21.02;;;;;;;-9.26;84.85;101326.47;4958903;28;20038;-57
2021/12/12 07:20:02;;;;;;;47.60;19.48;;;;;;;-9.63;84.03;101258.16;4957761;28;20043;-58
2021/12/12 07:22:49;;;;;;;49.22;20.35;;;;;;;-9.21;85.15;101300.13;4965006;29;20062;-58
2021/12/12 07:25:37;;;;;;;55.08;20.35;;;;;;;-9.82;84.38;101240.66;4951209;29;20032;-57
2021/12/12 07:28:25;;;;;;;52.40;19.08;;;;;;;-9.57;85.37;101242.78;4962773;28;20027;-57
2021/12/12 07:31:16;;;;;;;59.15;22.58;;;;;;;-9.28;85.47;101282.81;4965762;28;20378;-58
2021/12/12 07:34:06;;;;;;;56.72;20.27;;;;;;;-9.13;85.76;101282.38;4963162;28;20042;-57
2021/12/12 07:37:00;;;;;;;56.13;20.80;;;;;;;-9.60;84.93;101225.84;4950160;28;20118;-58
2021/12/12 07:39:49;;;;;;;55.08;22.58;;;;;;;-9.04;85.54;101308.22;4962990;29;20028;-59
2021/12/12 07:42:36;;;;;;;58.28;22.48;;;;;;;-8.92;83.81;101281.63;4966144;28;20065;-57
2021/12/12 07:45:23;;;;;;;54.88;21.60;;;;;;;-9.03;85.30;101294.91;4965157;29;20027;-58
2021/12/12 07:48:12;;;;;;;52.63;21.35;;;;;;;-9.36;84.45;101241.19;4936256;29;20041;-57
2021/12/12 07:50:59;;;;;;;57.22;20.92;;;;;;;-8.88;85.30;101293.69;4958371;29;20038;-58
2021/12/12 07:53:49;;;;;;;48.72;20.50;;;;;;;-9.14;83.72;101228.78;4965325;29;20054;-58
2021/12/12 07:56:38;;;;;;;50.80;19.88;;;;;;;-8.83;84.23;101279.00;4965175;28;20336;-58
2021/12/12 07:59:26;;;;;;;51.80;20.25;;;;;;;-8.93;85.29;101227.16;4966060;29;20054;-58
2021/12/12 08:02:14;;;;;;;54.60;20.17;;;;;;;-8.79;85.94;101298.56;4961831;28;20486;-58
2021/12/12 08:05:01;;;;;;;46.50;17.85;;;;;;;-8.98;85.01;101286.13;4953586;29;20042;-58
2021/12/12 08:07:48;;;;;;;59.35;21.65;;;;;;;-9.03;87.08;101279.88;4965394;29;20031;-58
2021/12/12 08:10:36;;;;;;;69.43;23.48;;;;;;;-8.93;86.50;101282.38;4960214;28;20059;-58
2021/12/12 08:13:23;;;;;;;62.75;20.88;;;;;;;-8.64;86.67;101285.53;4955291;29;20111;-59
2021/12/12 08:16:09;;;;;;;59.03;19.83;;;;;;;-8.69;86.59;101282.63;4963768;29;20039;-59
2021/12/12 08:18:57;;;;;;;56.38;22.98;;;;;;;-8.85;86.42;101266.31;4964296;28;20217;-58
2021/12/12 08:21:43;;;;;;;56.30;22.38;;;;;;;-8.53;85.95;101278.09;4958890;29;20139;-57
2021/12/12 08:24:31;;;;;;;52.45;21.00;;;;;;;-8.39;84.94;101294.25;4952549;29;20221;-58
2021/12/12 08:27:18;;;;;;;61.03;21.20;;;;;;;-8.56;85.57;101261.91;4954403;29;20090;-58
2021/12/12 08:30:06;;;;;;;50.58;18.65;;;;;;;-8.78;86.59;101270.19;4960904;29;20261;-58
2021/12/12 08:32:52;;;;;;;61.70;21.83;;;;;;;-8.64;87.65;101263.78;4962197;29;20023;-58
2021/12/12 08:35:41;;;;;;;58.83;20.23;;;;;;;-8.79;87.96;101260.91;4950449;29;20110;-59
2021/12/12 08:38:27;;;;;;;61.58;21.73;;;;;;;-8.90;88.42;101237.44;4959147;29;20383;-59
2021/12/12 08:41:13;;;;;;;61.92;22.23;;;;;;;-8.52;86.97;101237.16;4960896;29;20062;-59
2021/12/12 08:43:59;;;;;;;63.80;22.80;;;;;;;-8.38;86.03;101247.38;4961287;29;20050;-59
2021/12/12 08:46:48;;;;;;;69.60;22.98;;;;;;;-8.77;86.41;101180.72;4945174;29;20028;-59
2021/12/12 08:49:37;;;;;;;64.93;23.30;;;;;;;-8.99;87.33;101166.44;4946387;29;20032;-58
2021/12/12 08:52:34;;;;;;;65.40;22.67;;;;;;;-8.41;87.02;101248.00;4960044;29;20035;-59
2021/12/12 08:55:30;;;;;;;60.97;23.15;;;;;;;-8.56;87.14;101239.31;4961439;29;20027;-60
2021/12/12 08:58:20;;;;;;;107.18;41.50;;;;;;;-8.39;86.62;101239.00;4945565;28;20397;-59
2021/12/12 09:01:10;;;;;;;61.10;21.75;;;;;;;-8.51;86.43;101258.13;4956025;29;20035;-60
2021/12/12 09:04:01;;;;;;;61.90;23.67;;;;;;;-8.41;86.67;101234.59;4945768;29;20321;-58
2021/12/12 09:07:02;;;;;;;70.43;25.95;;;;;;;-8.48;85.94;101193.06;4946680;29;20028;-60
2021/12/12 09:10:11;;;;;;;64.38;23.77;;;;;;;-8.23;87.39;101257.78;4957181;29;20315;-60
2021/12/12 09:13:28;;;;;;;67.75;24.65;;;;;;;-8.01;86.23;101267.91;4953870;29;20026;-63
2021/12/12 09:16:23;;;;;;;75.80;25.52;;;;;;;-7.88;86.21;101275.66;4944276;28;20046;-62
2021/12/12 09:19:45;;;;;;;75.82;26.60;;;;;;;-7.83;86.75;101274.38;4958068;29;20054;-62
2021/12/12 09:22:40;;;;;;;67.60;24.58;;;;;;;-7.93;85.72;101291.13;4960322;29;20035;-61
2021/12/12 09:25:35;;;;;;;78.78;26.52;;;;;;;-8.26;86.62;101218.22;4943888;29;20027;-62
2021/12/12 09:28:39;;;;;;;68.10;26.20;;;;;;;-7.70;86.48;101273.69;4945882;29;20023;-63
2021/12/12 09:31:30;;;;;;;65.18;25.17;;;;;;;-7.79;86.28;101275.50;4952100;28;20042;-63
2021/12/12 09:35:05;;;;;;;70.68;28.92;;;;;;;-7.79;87.18;101280.53;4960752;29;20320;-61
2021/12/12 09:38:00;;;;;;;76.85;25.50;;;;;;;-8.03;87.63;101256.84;4943686;28;20324;-62
2021/12/12 09:41:01;;;;;;;72.43;26.17;;;;;;;-7.83;87.28;101264.31;4959024;29;20031;-62
2021/12/12 09:43:53;;;;;;;79.82;26.67;;;;;;;-7.70;86.75;101247.66;4972419;28;20256;-62
2021/12/12 09:46:59;;;;;;;77.38;25.80;;;;;;;-7.72;87.06;101241.66;4960135;29;20036;-63
2021/12/12 09:54:00;;;;;;;86.85;28.38;;;;;;;-7.59;87.68;101228.38;4960238;29;20027;-64
2021/12/12 09:57:00;;;;;;;76.45;27.10;;;;;;;-7.52;88.06;101228.97;4899865;29;20028;-62
2021/12/12 10:00:05;;;;;;;76.80;27.38;;;;;;;-7.46;86.98;101236.09;4959335;28;20027;-62
2021/12/12 10:03:03;;;;;;;78.75;28.42;;;;;;;-7.18;86.74;101235.66;4960315;29;20027;-61
2021/12/12 10:06:14;;;;;;;69.78;26.92;;;;;;;-7.08;86.04;101204.50;4943689;29;20147;-63
2021/12/12 10:09:13;;;;;;;72.30;28.05;;;;;;;-6.95;85.80;101222.28;4945543;29;20043;-64
2021/12/12 10:12:06;;;;;;;76.15;27.83;;;;;;;-7.17;86.09;101227.34;4948697;29;20090;-63
2021/12/12 10:14:57;;;;;;;86.65;29.80;;;;;;;-6.99;86.51;101226.19;4953090;29;20058;-62
2021/12/12 10:17:48;;;;;;;75.03;26.92;;;;;;;-7.43;86.38;101155.81;4950462;29;20035;-62
2021/12/12 10:20:34;;;;;;;78.90;29.52;;;;;;;-7.13;86.53;101219.25;4959775;29;20042;-61
2021/12/12 10:23:45;;;;;;;81.35;30.08;;;;;;;-7.14;85.86;101195.75;4958059;29;20046;-61
2021/12/12 10:26:39;;;;;;;85.90;29.52;;;;;;;-7.04;85.75;101237.59;4949891;29;20055;-62
2021/12/12 10:29:31;;;;;;;79.50;29.73;;;;;;;-7.47;86.53;101131.19;4958193;29;20054;-62
2021/12/12 10:32:25;;;;;;;86.10;29.40;;;;;;;-7.08;86.69;101186.88;4939759;29;20073;-61
2021/12/12 10:35:17;;;;;;;81.05;27.80;;;;;;;-7.24;86.47;101142.09;4949453;29;20032;-61
2021/12/12 10:38:14;;;;;;;78.97;29.35;;;;;;;-7.10;86.07;101136.41;4959302;29;20094;-61
2021/12/12 10:41:14;;;;;;;91.93;31.95;;;;;;;-6.91;86.78;101231.81;4943041;29;20047;-60
2021/12/12 10:44:07;;;;;;;88.18;29.70;;;;;;;-7.35;86.55;101151.38;4942549;29;20099;-61
2021/12/12 10:47:16;;;;;;;88.00;30.30;;;;;;;-6.77;87.41;101207.63;4943758;29;20032;-61
2021/12/12 10:50:15;;;;;;;83.43;29.70;;;;;;;-7.04;88.22;101227.50;4957676;29;20043;-61
2021/12/12 10:53:29;;;;;;;78.78;28.83;;;;;;;-7.08;87.98;101156.66;4953065;28;20031;-61
2021/12/12 10:56:15;;;;;;;74.97;28.92;;;;;;;-6.81;88.36;101198.09;4956591;29;20035;-61
2021/12/12 10:59:14;;;;;;;90.45;31.15;;;;;;;-6.81;88.43;101176.31;4958952;29;20158;-62
2021/12/12 11:02:11;;;;;;;87.10;30.77;;;;;;;-7.02;88.13;101116.84;4953667;29;20043;-62
2021/12/12 11:05:04;;;;;;;82.18;29.15;;;;;;;-6.88;89.27;101174.13;4942000;29;20039;-64
2021/12/12 11:08:01;;;;;;;91.20;30.15;;;;;;;-6.66;88.02;101190.78;4942349;29;20044;-62
2021/12/12 11:10:49;;;;;;;87.10;30.20;;;;;;;-6.90;88.22;101139.50;4948792;29;20094;-63
2021/12/12 11:14:11;;;;;;;85.32;28.30;;;;;;;-6.84;88.79;101190.31;4951803;29;20031;-63
2021/12/12 11:17:22;;;;;;;83.13;29.20;;;;;;;-6.49;89.04;101210.50;4949552;29;20042;-62
2021/12/12 11:20:31;;;;;;;86.22;29.20;;;;;;;-6.53;89.55;101212.69;4960210;28;20039;-63
2021/12/12 11:23:42;;;;;;;87.35;30.10;;;;;;;-6.53;89.58;101211.03;4958646;29;20091;-60
2021/12/12 11:26:34;;;;;;;92.75;32.35;;;;;;;-6.37;89.32;101210.53;4958678;28;20102;-61
2021/12/12 11:29:30;;;;;;;86.75;31.92;;;;;;;-6.24;87.69;101214.78;4958206;29;20035;-60
2021/12/12 11:32:24;;;;;;;79.53;28.98;;;;;;;-6.65;89.57;101149.72;4958693;29;20090;-61
2021/12/12 11:35:12;;;;;;;81.07;29.73;;;;;;;-6.49;89.43;101214.66;4949677;29;20027;-62
2021/12/12 11:38:09;;;;;;;86.60;28.80;;;;;;;-6.61;89.84;101187.81;4942020;28;20321;-61
2021/12/12 11:41:34;;;;;;;101.10;34.08;;;;;;;-6.42;89.70;101204.25;4957773;29;20059;-61
2021/12/12 11:44:26;;;;;;;74.00;29.05;;;;;;;-6.54;90.08;101181.59;4899441;29;20213;-62
2021/12/12 11:47:23;;;;;;;87.15;32.35;;;;;;;-6.30;90.98;101196.69;4955715;28;20027;-61
2021/12/12 11:50:21;;;;;;;83.95;30.25;;;;;;;-6.50;90.63;101178.53;4950294;29;20043;-61
2021/12/12 11:53:19;;;;;;;95.20;32.38;;;;;;;-6.69;91.27;101130.13;4952657;29;20058;-61
2021/12/12 11:56:11;;;;;;;103.57;34.40;;;;;;;-6.28;90.63;101191.00;4942462;29;20043;-61
2021/12/12 11:59:13;;;;;;;92.80;34.20;;;;;;;-6.15;90.17;101200.31;4963751;29;20027;-61
2021/12/12 12:02:21;;;;;;;89.35;31.20;;;;;;;-5.98;90.21;101188.00;4962612;29;20348;-61
2021/12/12 12:05:38;;;;;;;90.30;31.05;;;;;;;-6.16;89.21;101195.16;4961669;29;20039;-61
2021/12/12 12:08:46;;;;;;;95.57;32.15;;;;;;;-6.15;90.80;101192.75;4961316;29;20039;-61
2021/12/12 12:12:04;;;;;;;94.13;31.25;;;;;;;-6.11;90.46;101199.75;4962440;29;20047;-61
2021/12/12 12:15:27;;;;;;;92.50;33.67;;;;;;;-5.96;88.86;101189.81;4960290;29;20090;-61
2021/12/12 12:18:38;;;;;;;102.10;33.80;;;;;;;-5.96;89.45;101196.50;4961248;29;20054;-62
2021/12/12 12:21:39;;;;;;;101.80;36.07;;;;;;;-6.58;89.33;101131.75;4955935;29;20047;-62
2021/12/12 12:24:44;;;;;;;93.97;34.25;;;;;;;-6.60;91.40;101135.78;4957955;29;20375;-61
2021/12/12 12:27:35;;;;;;;95.47;35.08;;;;;;;-6.12;91.64;101195.47;4957662;29;20039;-60
2021/12/12 12:30:30;;;;;;;115.03;36.58;;;;;;;-6.10;91.94;101200.63;4961883;28;20066;-61
2021/12/12 12:33:40;;;;;;;100.38;33.92;;;;;;;-6.01;90.07;101187.78;4961905;29;20027;-61
2021/12/12 12:37:04;;;;;;;102.57;36.55;;;;;;;-5.93;91.23;101186.63;4962504;28;20031;-62
2021/12/12 12:40:11;;;;;;;100.40;34.35;;;;;;;-5.98;89.65;101186.34;4949501;28;20473;-61
2021/12/12 12:43:26;;;;;;;98.75;35.40;;;;;;;-5.86;90.27;101181.22;4947682;29;20042;-61
2021/12/12 12:46:43;;;;;;;89.38;33.85;;;;;;;-5.80;89.84;101179.16;4937063;28;20118;-61
2021/12/12 12:49:57;;;;;;;91.15;33.55;;;;;;;-6.02;89.43;101176.81;4957928;28;20042;-62
2021/12/12 12:53:15;;;;;;;97.78;33.63;;;;;;;-5.89;90.95;101175.97;4955590;28;20198;-62
2021/12/12 12:56:38;;;;;;;98.60;31.95;;;;;;;-5.70;89.22;101190.75;4956392;28;20070;-62
2021/12/12 12:59:37;;;;;;;98.38;35.60;;;;;;;-5.74;89.48;101182.09;4944308;29;20046;-61
2021/12/12 13:02:30;;;;;;;93.10;33.97;;;;;;;-5.91;90.47;101177.53;4952108;28;20328;-61
2021/12/12 13:05:54;;;;;;;91.03;33.80;;;;;;;-5.88;90.80;101182.78;4957441;28;20045;-60
2021/12/12 13:08:49;;;;;;;93.95;32.97;;;;;;;-5.83;92.21;101180.56;4957285;29;20113;-60
2021/12/12 13:11:44;;;;;;;100.00;35.05;;;;;;;-5.89;91.53;101186.06;4959061;29;20193;-60
2021/12/12 13:14:54;;;;;;;103.85;35.97;;;;;;;-5.80;90.98;101189.25;4943365;29;20043;-60
2021/12/12 13:17:52;;;;;;;95.30;33.42;;;;;;;-5.70;92.23;101194.91;4947285;28;20035;-61
2021/12/12 13:20:43;;;;;;;97.15;33.78;;;;;;;-5.60;91.53;101198.19;4961207;29;20081;-61